sensor_id;sensor_type;location;lat;lon;timestamp;temperature;humidity
46159;DHT22;31888;44.512;26.104;2023-05-03T00:01:56;9.70;97.10
46159;DHT22;31888;44.512;26.104;2023-05-03T00:04:23;9.70;97.30
46159;DHT22;31888;44.512;26.104;2023-05-03T00:06:48;9.70;97.50
46159;DHT22;31888;44.512;26.104;2023-05-03T00:09:13;9.60;97.70
46159;DHT22;31888;44.512;26.104;2023-05-03T00:11:38;9.60;97.90
46159;DHT22;31888;44.512;26.104;2023-05-03T00:14:03;9.50;98.00
46159;DHT22;31888;44.512;26.104;2023-05-03T00:19:01;9.50;98.30
46159;DHT22;31888;44.512;26.104;2023-05-03T00:20:29;9.60;98.30
46159;DHT22;31888;44.512;26.104;2023-05-03T00:22:55;9.60;98.50
46159;DHT22;31888;44.512;26.104;2023-05-03T00:25:19;9.50;98.60
46159;DHT22;31888;44.512;26.104;2023-05-03T00:27:44;9.50;98.80
46159;DHT22;31888;44.512;26.104;2023-05-03T00:30:09;9.50;98.80
46159;DHT22;31888;44.512;26.104;2023-05-03T00:32:34;9.50;99.00
46159;DHT22;31888;44.512;26.104;2023-05-03T00:35:02;9.50;99.00
46159;DHT22;31888;44.512;26.104;2023-05-03T00:40:53;9.50;99.30
46159;DHT22;31888;44.512;26.104;2023-05-03T00:43:18;9.50;99.60
46159;DHT22;31888;44.512;26.104;2023-05-03T00:45:43;9.40;99.60
46159;DHT22;31888;44.512;26.104;2023-05-03T00:48:08;9.40;99.80
46159;DHT22;31888;44.512;26.104;2023-05-03T00:50:35;9.30;99.90
46159;DHT22;31888;44.512;26.104;2023-05-03T00:53:00;9.30;99.90
46159;DHT22;31888;44.512;26.104;2023-05-03T00:55:28;9.20;99.90
46159;DHT22;31888;44.512;26.104;2023-05-03T00:57:56;9.30;99.90
46159;DHT22;31888;44.512;26.104;2023-05-03T01:00:21;9.20;99.90
46159;DHT22;31888;44.512;26.104;2023-05-03T01:02:46;9.30;99.90
46159;DHT22;31888;44.512;26.104;2023-05-03T01:05:11;9.20;99.90
46159;DHT22;31888;44.512;26.104;2023-05-03T01:07:44;9.20;99.90
46159;DHT22;31888;44.512;26.104;2023-05-03T01:10:20;9.20;99.90
46159;DHT22;31888;44.512;26.104;2023-05-03T01:12:53;9.20;99.90
46159;DHT22;31888;44.512;26.104;2023-05-03T01:15:42;9.20;99.90
46159;DHT22;31888;44.512;26.104;2023-05-03T01:18:11;9.20;99.90
46159;DHT22;31888;44.512;26.104;2023-05-03T01:43:40;9.10;99.90
46159;DHT22;31888;44.512;26.104;2023-05-03T01:46:19;9.10;99.90
46159;DHT22;31888;44.512;26.104;2023-05-03T01:48:44;9.00;99.90
46159;DHT22;31888;44.512;26.104;2023-05-03T01:51:11;9.00;99.90
46159;DHT22;31888;44.512;26.104;2023-05-03T01:53:36;8.90;99.90
46159;DHT22;31888;44.512;26.104;2023-05-03T01:56:00;8.90;99.90
46159;DHT22;31888;44.512;26.104;2023-05-03T01:58:25;8.80;99.90
46159;DHT22;31888;44.512;26.104;2023-05-03T02:00:51;8.80;99.90
46159;DHT22;31888;44.512;26.104;2023-05-03T02:03:16;8.70;99.90
46159;DHT22;31888;44.512;26.104;2023-05-03T02:05:41;8.80;99.90
46159;DHT22;31888;44.512;26.104;2023-05-03T02:08:07;8.70;99.90
46159;DHT22;31888;44.512;26.104;2023-05-03T02:10:32;8.60;99.90
46159;DHT22;31888;44.512;26.104;2023-05-03T02:13:25;8.60;99.90
46159;DHT22;31888;44.512;26.104;2023-05-03T02:17:37;8.50;99.90
46159;DHT22;31888;44.512;26.104;2023-05-03T02:20:02;8.60;99.90
46159;DHT22;31888;44.512;26.104;2023-05-03T02:22:28;8.50;99.90
46159;DHT22;31888;44.512;26.104;2023-05-03T02:24:52;8.50;99.90
46159;DHT22;31888;44.512;26.104;2023-05-03T02:27:17;8.40;99.90
46159;DHT22;31888;44.512;26.104;2023-05-03T02:29:42;8.40;99.90
46159;DHT22;31888;44.512;26.104;2023-05-03T02:32:07;8.30;99.90
46159;DHT22;31888;44.512;26.104;2023-05-03T02:34:35;8.30;99.90
46159;DHT22;31888;44.512;26.104;2023-05-03T02:37:00;8.30;99.90
46159;DHT22;31888;44.512;26.104;2023-05-03T02:39:25;8.20;99.90
46159;DHT22;31888;44.512;26.104;2023-05-03T02:41:52;8.10;99.90
46159;DHT22;31888;44.512;26.104;2023-05-03T02:44:17;8.10;99.90
46159;DHT22;31888;44.512;26.104;2023-05-03T02:46:42;8.00;99.90
46159;DHT22;31888;44.512;26.104;2023-05-03T02:49:07;8.10;99.90
46159;DHT22;31888;44.512;26.104;2023-05-03T02:51:34;8.10;99.90
46159;DHT22;31888;44.512;26.104;2023-05-03T02:53:58;8.00;99.90
46159;DHT22;31888;44.512;26.104;2023-05-03T02:56:23;8.00;99.90
46159;DHT22;31888;44.512;26.104;2023-05-03T02:58:49;7.90;99.90
46159;DHT22;31888;44.512;26.104;2023-05-03T03:01:16;8.00;99.90
46159;DHT22;31888;44.512;26.104;2023-05-03T03:03:41;8.00;99.90
46159;DHT22;31888;44.512;26.104;2023-05-03T03:06:07;8.00;99.90
46159;DHT22;31888;44.512;26.104;2023-05-03T03:08:34;7.90;99.90
46159;DHT22;31888;44.512;26.104;2023-05-03T03:11:00;7.90;99.90
46159;DHT22;31888;44.512;26.104;2023-05-03T03:13:25;7.90;99.90
46159;DHT22;31888;44.512;26.104;2023-05-03T03:15:50;7.90;99.90
46159;DHT22;31888;44.512;26.104;2023-05-03T03:18:15;8.00;99.90
46159;DHT22;31888;44.512;26.104;2023-05-03T03:20:44;8.30;99.90
46159;DHT22;31888;44.512;26.104;2023-05-03T03:23:12;8.60;99.90
46159;DHT22;31888;44.512;26.104;2023-05-03T03:25:40;8.90;99.90
46159;DHT22;31888;44.512;26.104;2023-05-03T03:28:05;9.00;99.90
46159;DHT22;31888;44.512;26.104;2023-05-03T03:30:31;9.30;99.90
46159;DHT22;31888;44.512;26.104;2023-05-03T03:33:14;9.30;99.90
46159;DHT22;31888;44.512;26.104;2023-05-03T03:35:39;9.40;99.90
46159;DHT22;31888;44.512;26.104;2023-05-03T03:38:12;9.40;99.90
46159;DHT22;31888;44.512;26.104;2023-05-03T03:40:47;9.40;99.90
46159;DHT22;31888;44.512;26.104;2023-05-03T03:43:12;9.60;99.90
46159;DHT22;31888;44.512;26.104;2023-05-03T03:45:38;9.60;99.90
46159;DHT22;31888;44.512;26.104;2023-05-03T03:48:05;9.60;99.90
46159;DHT22;31888;44.512;26.104;2023-05-03T03:50:30;9.60;99.90
46159;DHT22;31888;44.512;26.104;2023-05-03T03:52:56;9.60;99.90
46159;DHT22;31888;44.512;26.104;2023-05-03T03:55:21;9.50;99.90
46159;DHT22;31888;44.512;26.104;2023-05-03T03:57:51;9.50;99.90
46159;DHT22;31888;44.512;26.104;2023-05-03T04:00:18;9.60;99.90
46159;DHT22;31888;44.512;26.104;2023-05-03T04:02:50;9.60;99.90
46159;DHT22;31888;44.512;26.104;2023-05-03T04:05:18;9.60;99.90
46159;DHT22;31888;44.512;26.104;2023-05-03T04:07:43;9.50;99.90
46159;DHT22;31888;44.512;26.104;2023-05-03T04:10:10;9.30;99.90
46159;DHT22;31888;44.512;26.104;2023-05-03T04:12:36;9.20;99.90
46159;DHT22;31888;44.512;26.104;2023-05-03T04:15:03;9.10;99.90
46159;DHT22;31888;44.512;26.104;2023-05-03T04:17:30;9.10;99.90
46159;DHT22;31888;44.512;26.104;2023-05-03T04:20:00;9.00;99.90
46159;DHT22;31888;44.512;26.104;2023-05-03T04:22:27;9.00;99.90
46159;DHT22;31888;44.512;26.104;2023-05-03T04:24:56;9.00;99.90
46159;DHT22;31888;44.512;26.104;2023-05-03T04:27:26;9.00;99.90
46159;DHT22;31888;44.512;26.104;2023-05-03T04:29:52;9.10;99.90
46159;DHT22;31888;44.512;26.104;2023-05-03T04:32:20;9.20;99.90
46159;DHT22;31888;44.512;26.104;2023-05-03T04:34:49;9.20;99.90
46159;DHT22;31888;44.512;26.104;2023-05-03T04:37:17;9.20;99.90
46159;DHT22;31888;44.512;26.104;2023-05-03T04:39:47;9.30;99.90
46159;DHT22;31888;44.512;26.104;2023-05-03T04:44:50;9.30;99.90
46159;DHT22;31888;44.512;26.104;2023-05-03T04:47:12;9.50;99.90
46159;DHT22;31888;44.512;26.104;2023-05-03T04:49:38;9.80;99.90
46159;DHT22;31888;44.512;26.104;2023-05-03T04:52:05;9.90;99.90
46159;DHT22;31888;44.512;26.104;2023-05-03T04:54:30;10.00;99.90
46159;DHT22;31888;44.512;26.104;2023-05-03T04:56:55;10.10;99.90
46159;DHT22;31888;44.512;26.104;2023-05-03T04:59:20;10.20;99.90
46159;DHT22;31888;44.512;26.104;2023-05-03T05:01:48;10.20;99.90
46159;DHT22;31888;44.512;26.104;2023-05-03T05:04:13;10.30;99.90
46159;DHT22;31888;44.512;26.104;2023-05-03T05:06:44;10.40;99.90
46159;DHT22;31888;44.512;26.104;2023-05-03T05:09:22;10.50;99.90
46159;DHT22;31888;44.512;26.104;2023-05-03T05:11:50;10.60;99.90
46159;DHT22;31888;44.512;26.104;2023-05-03T05:14:19;10.80;99.90
46159;DHT22;31888;44.512;26.104;2023-05-03T05:16:45;11.10;99.90
46159;DHT22;31888;44.512;26.104;2023-05-03T05:19:12;11.40;99.90
46159;DHT22;31888;44.512;26.104;2023-05-03T05:21:37;11.90;99.90
46159;DHT22;31888;44.512;26.104;2023-05-03T05:24:05;12.40;99.90
46159;DHT22;31888;44.512;26.104;2023-05-03T05:26:30;12.80;99.90
46159;DHT22;31888;44.512;26.104;2023-05-03T05:28:55;12.80;99.90
46159;DHT22;31888;44.512;26.104;2023-05-03T05:31:24;12.90;99.90
46159;DHT22;31888;44.512;26.104;2023-05-03T05:33:49;12.80;99.90
46159;DHT22;31888;44.512;26.104;2023-05-03T05:36:14;12.60;99.90
46159;DHT22;31888;44.512;26.104;2023-05-03T05:38:40;12.60;99.90
46159;DHT22;31888;44.512;26.104;2023-05-03T05:41:09;12.70;99.90
46159;DHT22;31888;44.512;26.104;2023-05-03T05:43:36;12.70;99.90
46159;DHT22;31888;44.512;26.104;2023-05-03T05:46:01;12.80;99.90
46159;DHT22;31888;44.512;26.104;2023-05-03T05:48:27;12.80;99.90
46159;DHT22;31888;44.512;26.104;2023-05-03T05:50:53;12.90;99.90
46159;DHT22;31888;44.512;26.104;2023-05-03T05:53:18;13.10;99.90
46159;DHT22;31888;44.512;26.104;2023-05-03T05:55:50;13.30;99.90
46159;DHT22;31888;44.512;26.104;2023-05-03T05:58:17;13.20;99.90
46159;DHT22;31888;44.512;26.104;2023-05-03T06:00:46;13.30;99.90
46159;DHT22;31888;44.512;26.104;2023-05-03T06:03:12;13.30;99.90
46159;DHT22;31888;44.512;26.104;2023-05-03T06:05:38;13.10;99.90
46159;DHT22;31888;44.512;26.104;2023-05-03T06:08:04;13.20;99.90
46159;DHT22;31888;44.512;26.104;2023-05-03T06:10:29;13.20;99.90
46159;DHT22;31888;44.512;26.104;2023-05-03T06:12:55;13.20;99.90
46159;DHT22;31888;44.512;26.104;2023-05-03T06:15:23;13.40;99.90
46159;DHT22;31888;44.512;26.104;2023-05-03T06:17:47;13.40;99.90
46159;DHT22;31888;44.512;26.104;2023-05-03T06:20:13;13.60;99.90
46159;DHT22;31888;44.512;26.104;2023-05-03T06:22:38;14.20;99.90
46159;DHT22;31888;44.512;26.104;2023-05-03T06:25:05;14.40;98.70
46159;DHT22;31888;44.512;26.104;2023-05-03T06:27:31;14.60;98.10
46159;DHT22;31888;44.512;26.104;2023-05-03T06:29:56;14.40;98.70
46159;DHT22;31888;44.512;26.104;2023-05-03T06:32:23;14.60;97.80
46159;DHT22;31888;44.512;26.104;2023-05-03T06:34:47;14.70;97.50
46159;DHT22;31888;44.512;26.104;2023-05-03T06:37:13;14.70;97.00
46159;DHT22;31888;44.512;26.104;2023-05-03T06:39:39;14.60;97.50
46159;DHT22;31888;44.512;26.104;2023-05-03T06:42:04;14.60;97.10
46159;DHT22;31888;44.512;26.104;2023-05-03T06:44:33;14.60;96.90
46159;DHT22;31888;44.512;26.104;2023-05-03T06:46:59;14.60;97.20
46159;DHT22;31888;44.512;26.104;2023-05-03T06:49:25;14.70;96.70
46159;DHT22;31888;44.512;26.104;2023-05-03T06:51:50;14.80;96.90
46159;DHT22;31888;44.512;26.104;2023-05-03T06:54:15;14.90;97.10
46159;DHT22;31888;44.512;26.104;2023-05-03T06:56:42;15.20;96.70
46159;DHT22;31888;44.512;26.104;2023-05-03T06:59:07;15.20;96.20
46159;DHT22;31888;44.512;26.104;2023-05-03T07:01:32;15.10;96.40
46159;DHT22;31888;44.512;26.104;2023-05-03T07:03:57;15.10;96.30
46159;DHT22;31888;44.512;26.104;2023-05-03T07:06:24;15.20;96.10
46159;DHT22;31888;44.512;26.104;2023-05-03T07:08:49;15.20;96.00
46159;DHT22;31888;44.512;26.104;2023-05-03T07:11:15;15.20;96.20
46159;DHT22;31888;44.512;26.104;2023-05-03T07:13:41;15.20;96.30
46159;DHT22;31888;44.512;26.104;2023-05-03T07:16:06;15.40;95.70
46159;DHT22;31888;44.512;26.104;2023-05-03T07:18:31;15.40;94.60
46159;DHT22;31888;44.512;26.104;2023-05-03T07:20:56;15.30;95.20
46159;DHT22;31888;44.512;26.104;2023-05-03T07:23:21;15.30;96.00
46159;DHT22;31888;44.512;26.104;2023-05-03T07:25:47;15.30;95.30
46159;DHT22;31888;44.512;26.104;2023-05-03T07:28:12;15.20;95.40
46159;DHT22;31888;44.512;26.104;2023-05-03T07:30:37;15.10;95.70
46159;DHT22;31888;44.512;26.104;2023-05-03T07:33:01;15.20;95.70
46159;DHT22;31888;44.512;26.104;2023-05-03T07:35:26;15.40;96.00
46159;DHT22;31888;44.512;26.104;2023-05-03T07:37:51;15.40;95.50
46159;DHT22;31888;44.512;26.104;2023-05-03T07:40:17;15.30;96.30
46159;DHT22;31888;44.512;26.104;2023-05-03T07:42:42;15.30;96.40
46159;DHT22;31888;44.512;26.104;2023-05-03T07:45:09;15.50;96.50
46159;DHT22;31888;44.512;26.104;2023-05-03T07:47:34;15.80;96.10
46159;DHT22;31888;44.512;26.104;2023-05-03T07:50:00;16.20;95.70
46159;DHT22;31888;44.512;26.104;2023-05-03T07:52:27;16.40;94.80
46159;DHT22;31888;44.512;26.104;2023-05-03T07:54:52;16.20;94.40
46159;DHT22;31888;44.512;26.104;2023-05-03T07:57:19;16.10;95.10
46159;DHT22;31888;44.512;26.104;2023-05-03T07:59:45;16.00;95.20
46159;DHT22;31888;44.512;26.104;2023-05-03T08:02:10;15.90;95.30
46159;DHT22;31888;44.512;26.104;2023-05-03T08:04:35;16.00;95.30
46159;DHT22;31888;44.512;26.104;2023-05-03T08:07:00;16.00;95.50
46159;DHT22;31888;44.512;26.104;2023-05-03T08:09:26;16.10;95.30
46159;DHT22;31888;44.512;26.104;2023-05-03T08:11:51;16.20;95.20
46159;DHT22;31888;44.512;26.104;2023-05-03T08:14:18;16.40;94.70
46159;DHT22;31888;44.512;26.104;2023-05-03T08:16:42;16.50;93.50
46159;DHT22;31888;44.512;26.104;2023-05-03T08:19:10;16.40;93.80
46159;DHT22;31888;44.512;26.104;2023-05-03T08:21:35;16.40;94.10
46159;DHT22;31888;44.512;26.104;2023-05-03T08:24:02;16.40;93.90
46159;DHT22;31888;44.512;26.104;2023-05-03T08:26:29;16.70;93.50
46159;DHT22;31888;44.512;26.104;2023-05-03T08:28:54;16.50;93.10
46159;DHT22;31888;44.512;26.104;2023-05-03T08:31:21;16.80;93.40
46159;DHT22;31888;44.512;26.104;2023-05-03T08:33:46;16.80;92.80
46159;DHT22;31888;44.512;26.104;2023-05-03T08:36:11;16.70;92.80
46159;DHT22;31888;44.512;26.104;2023-05-03T08:38:36;16.80;92.90
46159;DHT22;31888;44.512;26.104;2023-05-03T08:41:11;16.80;92.80
46159;DHT22;31888;44.512;26.104;2023-05-03T08:43:41;16.90;92.70
46159;DHT22;31888;44.512;26.104;2023-05-03T08:46:10;17.00;92.20
46159;DHT22;31888;44.512;26.104;2023-05-03T08:48:36;17.10;92.30
46159;DHT22;31888;44.512;26.104;2023-05-03T08:51:03;16.90;92.10
46159;DHT22;31888;44.512;26.104;2023-05-03T08:53:29;16.70;92.50
46159;DHT22;31888;44.512;26.104;2023-05-03T08:55:54;16.60;92.60
46159;DHT22;31888;44.512;26.104;2023-05-03T08:58:19;16.60;92.90
46159;DHT22;31888;44.512;26.104;2023-05-03T09:00:44;16.60;92.30
46159;DHT22;31888;44.512;26.104;2023-05-03T09:03:10;16.70;92.70
46159;DHT22;31888;44.512;26.104;2023-05-03T09:05:39;16.90;91.90
46159;DHT22;31888;44.512;26.104;2023-05-03T09:08:09;17.10;91.60
46159;DHT22;31888;44.512;26.104;2023-05-03T09:10:37;17.30;92.00
46159;DHT22;31888;44.512;26.104;2023-05-03T09:13:02;17.50;91.40
46159;DHT22;31888;44.512;26.104;2023-05-03T09:15:29;17.30;91.90
46159;DHT22;31888;44.512;26.104;2023-05-03T09:18:13;17.20;92.40
46159;DHT22;31888;44.512;26.104;2023-05-03T09:20:41;17.10;92.50
46159;DHT22;31888;44.512;26.104;2023-05-03T09:23:16;17.20;91.90
46159;DHT22;31888;44.512;26.104;2023-05-03T09:25:43;17.20;91.30
46159;DHT22;31888;44.512;26.104;2023-05-03T09:28:09;17.30;91.70
46159;DHT22;31888;44.512;26.104;2023-05-03T09:30:33;17.20;90.10
46159;DHT22;31888;44.512;26.104;2023-05-03T09:32:59;17.20;90.30
46159;DHT22;31888;44.512;26.104;2023-05-03T09:35:24;17.30;90.80
46159;DHT22;31888;44.512;26.104;2023-05-03T09:37:50;17.20;87.80
46159;DHT22;31888;44.512;26.104;2023-05-03T09:40:15;17.20;90.10
46159;DHT22;31888;44.512;26.104;2023-05-03T09:43:05;17.20;90.70
46159;DHT22;31888;44.512;26.104;2023-05-03T09:45:30;17.20;91.30
46159;DHT22;31888;44.512;26.104;2023-05-03T09:47:56;17.00;89.10
46159;DHT22;31888;44.512;26.104;2023-05-03T09:50:21;17.10;91.10
46159;DHT22;31888;44.512;26.104;2023-05-03T09:52:53;17.00;91.60
46159;DHT22;31888;44.512;26.104;2023-05-03T09:55:19;17.00;91.60
46159;DHT22;31888;44.512;26.104;2023-05-03T09:57:46;16.90;91.30
46159;DHT22;31888;44.512;26.104;2023-05-03T10:00:13;16.90;91.70
46159;DHT22;31888;44.512;26.104;2023-05-03T10:02:39;17.00;91.30
46159;DHT22;31888;44.512;26.104;2023-05-03T10:05:07;17.00;91.50
46159;DHT22;31888;44.512;26.104;2023-05-03T10:07:38;17.10;91.60
46159;DHT22;31888;44.512;26.104;2023-05-03T10:10:07;17.10;91.50
46159;DHT22;31888;44.512;26.104;2023-05-03T10:12:32;17.20;91.90
46159;DHT22;31888;44.512;26.104;2023-05-03T10:14:59;17.40;91.20
46159;DHT22;31888;44.512;26.104;2023-05-03T10:17:30;17.40;91.30
46159;DHT22;31888;44.512;26.104;2023-05-03T10:20:14;17.40;91.70
46159;DHT22;31888;44.512;26.104;2023-05-03T10:23:11;17.40;91.60
46159;DHT22;31888;44.512;26.104;2023-05-03T10:25:39;17.30;92.10
46159;DHT22;31888;44.512;26.104;2023-05-03T10:28:24;17.50;92.40
46159;DHT22;31888;44.512;26.104;2023-05-03T10:30:48;17.60;91.00
46159;DHT22;31888;44.512;26.104;2023-05-03T10:33:29;17.70;91.30
46159;DHT22;31888;44.512;26.104;2023-05-03T10:35:58;17.80;91.30
46159;DHT22;31888;44.512;26.104;2023-05-03T10:38:25;17.70;90.80
46159;DHT22;31888;44.512;26.104;2023-05-03T10:40:52;17.70;91.40
46159;DHT22;31888;44.512;26.104;2023-05-03T10:43:47;17.80;91.20
46159;DHT22;31888;44.512;26.104;2023-05-03T10:46:32;17.70;91.50
46159;DHT22;31888;44.512;26.104;2023-05-03T10:49:20;17.70;91.50
46159;DHT22;31888;44.512;26.104;2023-05-03T10:51:45;17.90;91.60
46159;DHT22;31888;44.512;26.104;2023-05-03T10:54:12;18.00;91.00
46159;DHT22;31888;44.512;26.104;2023-05-03T10:56:48;18.00;91.70
46159;DHT22;31888;44.512;26.104;2023-05-03T10:59:13;18.30;91.50
46159;DHT22;31888;44.512;26.104;2023-05-03T11:01:39;18.30;91.10
46159;DHT22;31888;44.512;26.104;2023-05-03T11:04:08;18.30;90.30
46159;DHT22;31888;44.512;26.104;2023-05-03T11:06:34;18.50;91.10
46159;DHT22;31888;44.512;26.104;2023-05-03T11:09:01;18.60;90.70
46159;DHT22;31888;44.512;26.104;2023-05-03T11:11:26;18.50;90.60
46159;DHT22;31888;44.512;26.104;2023-05-03T11:13:56;18.50;91.00
46159;DHT22;31888;44.512;26.104;2023-05-03T11:16:21;18.60;90.80
46159;DHT22;31888;44.512;26.104;2023-05-03T11:18:47;18.60;91.20
46159;DHT22;31888;44.512;26.104;2023-05-03T11:21:13;18.70;90.90
46159;DHT22;31888;44.512;26.104;2023-05-03T11:23:38;18.70;89.90
46159;DHT22;31888;44.512;26.104;2023-05-03T11:26:05;18.60;90.10
46159;DHT22;31888;44.512;26.104;2023-05-03T11:28:30;18.50;89.80
46159;DHT22;31888;44.512;26.104;2023-05-03T11:30:56;18.40;90.50
46159;DHT22;31888;44.512;26.104;2023-05-03T11:33:24;18.50;90.20
46159;DHT22;31888;44.512;26.104;2023-05-03T11:35:54;18.60;90.50
46159;DHT22;31888;44.512;26.104;2023-05-03T11:38:18;18.60;90.50
46159;DHT22;31888;44.512;26.104;2023-05-03T11:40:43;18.60;89.50
46159;DHT22;31888;44.512;26.104;2023-05-03T11:43:10;18.60;89.40
46159;DHT22;31888;44.512;26.104;2023-05-03T11:45:39;18.60;89.40
46159;DHT22;31888;44.512;26.104;2023-05-03T11:48:09;18.60;89.00
46159;DHT22;31888;44.512;26.104;2023-05-03T11:50:44;18.60;88.90
46159;DHT22;31888;44.512;26.104;2023-05-03T11:53:10;18.60;89.40
46159;DHT22;31888;44.512;26.104;2023-05-03T11:55:37;18.70;89.60
46159;DHT22;31888;44.512;26.104;2023-05-03T11:58:02;18.60;89.20
46159;DHT22;31888;44.512;26.104;2023-05-03T12:00:27;18.70;88.80
46159;DHT22;31888;44.512;26.104;2023-05-03T12:02:53;18.70;89.20
46159;DHT22;31888;44.512;26.104;2023-05-03T12:05:21;18.70;88.90
46159;DHT22;31888;44.512;26.104;2023-05-03T12:07:50;18.70;89.30
46159;DHT22;31888;44.512;26.104;2023-05-03T12:10:18;18.90;89.50
46159;DHT22;31888;44.512;26.104;2023-05-03T12:12:53;18.70;87.70
46159;DHT22;31888;44.512;26.104;2023-05-03T12:15:30;18.60;88.80
46159;DHT22;31888;44.512;26.104;2023-05-03T12:17:57;18.70;89.00
46159;DHT22;31888;44.512;26.104;2023-05-03T12:20:26;18.70;88.60
46159;DHT22;31888;44.512;26.104;2023-05-03T12:22:59;18.80;88.20
46159;DHT22;31888;44.512;26.104;2023-05-03T12:25:27;18.80;88.40
46159;DHT22;31888;44.512;26.104;2023-05-03T12:27:58;18.80;88.40
46159;DHT22;31888;44.512;26.104;2023-05-03T12:30:26;18.90;89.00
46159;DHT22;31888;44.512;26.104;2023-05-03T12:32:51;19.00;88.20
46159;DHT22;31888;44.512;26.104;2023-05-03T12:35:17;19.00;88.40
46159;DHT22;31888;44.512;26.104;2023-05-03T12:37:44;19.10;87.70
46159;DHT22;31888;44.512;26.104;2023-05-03T12:40:13;19.20;84.70
46159;DHT22;31888;44.512;26.104;2023-05-03T12:42:56;19.20;83.90
46159;DHT22;31888;44.512;26.104;2023-05-03T12:45:21;19.30;84.50
46159;DHT22;31888;44.512;26.104;2023-05-03T12:47:50;19.40;82.70
46159;DHT22;31888;44.512;26.104;2023-05-03T12:50:16;19.60;82.30
46159;DHT22;31888;44.512;26.104;2023-05-03T12:52:41;19.70;81.00
46159;DHT22;31888;44.512;26.104;2023-05-03T12:55:09;19.70;79.50
46159;DHT22;31888;44.512;26.104;2023-05-03T12:57:34;19.70;79.90
46159;DHT22;31888;44.512;26.104;2023-05-03T13:00:00;19.60;79.60
46159;DHT22;31888;44.512;26.104;2023-05-03T13:02:30;19.60;78.90
46159;DHT22;31888;44.512;26.104;2023-05-03T13:04:59;19.50;78.80
46159;DHT22;31888;44.512;26.104;2023-05-03T13:07:27;19.70;80.10
46159;DHT22;31888;44.512;26.104;2023-05-03T13:09:56;19.60;80.10
46159;DHT22;31888;44.512;26.104;2023-05-03T13:12:27;19.60;78.90
46159;DHT22;31888;44.512;26.104;2023-05-03T13:14:53;19.50;80.20
46159;DHT22;31888;44.512;26.104;2023-05-03T13:17:19;19.50;77.00
46159;DHT22;31888;44.512;26.104;2023-05-03T13:19:45;19.60;76.20
46159;DHT22;31888;44.512;26.104;2023-05-03T13:22:14;19.70;74.90
46159;DHT22;31888;44.512;26.104;2023-05-03T13:24:40;19.70;72.90
46159;DHT22;31888;44.512;26.104;2023-05-03T13:27:04;19.80;72.80
46159;DHT22;31888;44.512;26.104;2023-05-03T13:29:33;19.80;73.00
46159;DHT22;31888;44.512;26.104;2023-05-03T13:31:59;19.80;72.60
46159;DHT22;31888;44.512;26.104;2023-05-03T13:34:25;19.80;71.90
46159;DHT22;31888;44.512;26.104;2023-05-03T13:36:51;19.60;72.10
46159;DHT22;31888;44.512;26.104;2023-05-03T13:39:16;19.60;73.20
46159;DHT22;31888;44.512;26.104;2023-05-03T13:41:42;19.60;73.30
46159;DHT22;31888;44.512;26.104;2023-05-03T13:44:10;19.60;73.50
46159;DHT22;31888;44.512;26.104;2023-05-03T13:46:39;19.60;75.00
46159;DHT22;31888;44.512;26.104;2023-05-03T13:49:06;19.50;75.10
46159;DHT22;31888;44.512;26.104;2023-05-03T13:51:32;19.40;73.50
46159;DHT22;31888;44.512;26.104;2023-05-03T13:53:58;19.40;72.50
46159;DHT22;31888;44.512;26.104;2023-05-03T13:56:24;19.40;72.20
46159;DHT22;31888;44.512;26.104;2023-05-03T13:58:49;19.50;71.80
46159;DHT22;31888;44.512;26.104;2023-05-03T14:01:14;19.60;71.20
46159;DHT22;31888;44.512;26.104;2023-05-03T14:03:40;19.70;71.00
46159;DHT22;31888;44.512;26.104;2023-05-03T14:06:06;19.70;69.80
46159;DHT22;31888;44.512;26.104;2023-05-03T14:08:31;19.70;69.80
46159;DHT22;31888;44.512;26.104;2023-05-03T14:10:56;19.80;69.30
46159;DHT22;31888;44.512;26.104;2023-05-03T14:13:20;19.70;70.00
46159;DHT22;31888;44.512;26.104;2023-05-03T14:15:46;19.70;69.60
46159;DHT22;31888;44.512;26.104;2023-05-03T14:18:11;19.70;70.00
46159;DHT22;31888;44.512;26.104;2023-05-03T14:20:39;19.80;69.60
46159;DHT22;31888;44.512;26.104;2023-05-03T14:23:05;19.80;70.10
46159;DHT22;31888;44.512;26.104;2023-05-03T14:25:30;19.80;67.90
46159;DHT22;31888;44.512;26.104;2023-05-03T14:27:55;19.70;67.70
46159;DHT22;31888;44.512;26.104;2023-05-03T14:30:20;19.70;67.80
46159;DHT22;31888;44.512;26.104;2023-05-03T14:32:44;19.70;67.90
46159;DHT22;31888;44.512;26.104;2023-05-03T14:35:10;19.70;68.00
46159;DHT22;31888;44.512;26.104;2023-05-03T14:37:36;19.70;66.90
46159;DHT22;31888;44.512;26.104;2023-05-03T14:40:00;19.60;66.40
46159;DHT22;31888;44.512;26.104;2023-05-03T14:42:29;19.60;65.70
46159;DHT22;31888;44.512;26.104;2023-05-03T14:44:55;19.60;64.80
46159;DHT22;31888;44.512;26.104;2023-05-03T14:47:26;19.70;65.10
46159;DHT22;31888;44.512;26.104;2023-05-03T14:49:51;19.70;64.60
46159;DHT22;31888;44.512;26.104;2023-05-03T14:52:21;19.70;64.70
46159;DHT22;31888;44.512;26.104;2023-05-03T14:54:47;19.80;64.60
46159;DHT22;31888;44.512;26.104;2023-05-03T14:57:12;20.00;64.40
46159;DHT22;31888;44.512;26.104;2023-05-03T14:59:38;20.10;64.60
46159;DHT22;31888;44.512;26.104;2023-05-03T15:02:17;20.20;64.30
46159;DHT22;31888;44.512;26.104;2023-05-03T15:04:42;20.30;63.80
46159;DHT22;31888;44.512;26.104;2023-05-03T15:07:07;20.40;64.20
46159;DHT22;31888;44.512;26.104;2023-05-03T15:09:32;20.40;63.50
46159;DHT22;31888;44.512;26.104;2023-05-03T15:11:59;20.20;63.40
46159;DHT22;31888;44.512;26.104;2023-05-03T15:14:24;20.10;62.30
46159;DHT22;31888;44.512;26.104;2023-05-03T15:16:48;20.00;63.10
46159;DHT22;31888;44.512;26.104;2023-05-03T15:19:13;20.00;63.90
46159;DHT22;31888;44.512;26.104;2023-05-03T15:21:48;20.00;64.40
46159;DHT22;31888;44.512;26.104;2023-05-03T15:24:13;20.10;65.20
46159;DHT22;31888;44.512;26.104;2023-05-03T15:26:38;20.10;65.20
46159;DHT22;31888;44.512;26.104;2023-05-03T15:29:04;20.10;65.00
46159;DHT22;31888;44.512;26.104;2023-05-03T15:31:28;19.90;64.70
46159;DHT22;31888;44.512;26.104;2023-05-03T15:33:54;19.90;65.40
46159;DHT22;31888;44.512;26.104;2023-05-03T15:36:18;19.90;65.80
46159;DHT22;31888;44.512;26.104;2023-05-03T15:38:43;19.80;66.10
46159;DHT22;31888;44.512;26.104;2023-05-03T15:41:08;19.80;66.80
46159;DHT22;31888;44.512;26.104;2023-05-03T15:43:33;19.70;66.60
46159;DHT22;31888;44.512;26.104;2023-05-03T15:46:00;19.70;67.40
46159;DHT22;31888;44.512;26.104;2023-05-03T15:48:25;19.50;67.60
46159;DHT22;31888;44.512;26.104;2023-05-03T15:50:49;19.50;67.30
46159;DHT22;31888;44.512;26.104;2023-05-03T15:53:14;19.50;67.60